Time;durP1;ratioP1;P1;durP2;ratioP2;P2;SDS_P1;SDS_P2;PMS_P1;PMS_P2;Temp;Humidity;BMP_temperature;BMP_pressure;BME280_temperature;BME280_humidity;BME280_pressure;Samples;Min_cycle;Max_cycle;Signal;HPM_P1;HPM_P2
2022/03/16 00:01:32;;;;;;;;;;;;;;;21.41;44.63;101921.03;5077309;28;4099;-58
2022/03/16 00:03:58;;;;;;;;;;;;;;;21.40;44.61;101913.00;5078166;28;4227;-59
2022/03/16 00:06:25;;;;;;;;;;;;;;;21.39;44.63;101925.91;5077267;28;5464;-58
2022/03/16 00:08:52;;;;;;;;;;;;;;;21.38;44.49;101924.41;5078082;28;4262;-58
2022/03/16 00:11:18;;;;;;;;;;;;;;;21.36;44.75;101927.16;5077952;28;4354;-58
2022/03/16 00:13:44;;;;;;;;;;;;;;;21.37;44.78;101929.41;5076866;28;5871;-59
2022/03/16 00:16:11;;;;;;;;;;;;;;;21.40;44.53;101936.06;5078930;28;4263;-58
2022/03/16 00:18:37;;;;;;;;;;;;;;;21.39;44.78;101929.53;5078612;28;5158;-59
2022/03/16 00:21:04;;;;;;;;;;;;;;;21.41;44.59;101932.56;5078969;28;4252;-58
2022/03/16 00:23:30;;;;;;;;;;;;;;;21.41;44.63;101932.56;5075613;28;4257;-58
2022/03/16 00:25:56;;;;;;;;;;;;;;;21.41;44.49;101934.69;5079982;28;4277;-59
2022/03/16 00:28:23;;;;;;;;;;;;;;;21.42;44.67;101939.84;5074664;28;4157;-58
2022/03/16 00:30:49;;;;;;;;;;;;;;;21.41;44.78;101938.31;5073667;28;4240;-59
2022/03/16 00:33:15;;;;;;;;;;;;;;;21.40;44.75;101936.06;5080836;28;4222;-58
2022/03/16 00:35:42;;;;;;;;;;;;;;;21.39;44.79;101926.66;5077527;28;4112;-58
2022/03/16 00:38:13;;;;;;;;;;;;;;;21.40;44.69;101930.31;5081058;28;4282;-58
2022/03/16 00:40:41;;;;;;;;;;;;;;;21.38;44.77;101930.91;5076622;28;4197;-58
2022/03/16 00:43:07;;;;;;;;;;;;;;;21.36;44.72;101930.78;5077505;28;5389;-58
2022/03/16 00:45:34;;;;;;;;;;;;;;;21.37;44.78;101931.53;5075103;28;4071;-58
2022/03/16 00:48:00;;;;;;;;;;;;;;;21.36;44.73;101930.78;5073978;28;4277;-58
2022/03/16 00:50:27;;;;;;;;;;;;;;;21.36;44.78;101936.56;5071765;28;5178;-59
2022/03/16 00:52:53;;;;;;;;;;;;;;;21.34;44.62;101928.53;5076489;28;5295;-58
2022/03/16 00:55:20;;;;;;;;;;;;;;;21.36;44.57;101927.91;5076637;28;4292;-58
2022/03/16 00:57:46;;;;;;;;;;;;;;;21.36;44.72;101930.06;5075328;28;4244;-59
2022/03/16 01:00:13;;;;;;;;;;;;;;;21.38;44.92;101933.06;5070349;28;4179;-59
2022/03/16 01:02:39;;;;;;;;;;;;;;;21.40;44.84;101941.81;5076486;28;4113;-58
2022/03/16 01:05:06;;;;;;;;;;;;;;;21.40;44.87;101944.72;5075419;28;4153;-58
2022/03/16 01:07:32;;;;;;;;;;;;;;;21.40;44.62;101941.81;5078854;28;5373;-59
2022/03/16 01:09:58;;;;;;;;;;;;;;;21.30;44.73;101939.06;5077281;28;4225;-58
2022/03/16 01:12:25;;;;;;;;;;;;;;;21.36;44.81;101941.56;5076315;28;4169;-58
2022/03/16 01:14:51;;;;;;;;;;;;;;;21.37;44.80;101948.81;5075166;28;4330;-58
2022/03/16 01:17:17;;;;;;;;;;;;;;;21.36;44.82;101944.47;5073333;28;4155;-58
2022/03/16 01:19:44;;;;;;;;;;;;;;;21.36;44.83;101941.56;5078211;28;4193;-58
2022/03/16 01:22:10;;;;;;;;;;;;;;;21.34;44.85;101940.06;5073730;28;4260;-58
2022/03/16 01:24:37;;;;;;;;;;;;;;;21.34;44.54;101945.06;5076654;28;4166;-58
2022/03/16 01:27:03;;;;;;;;;;;;;;;21.26;45.02;101948.22;5076778;28;4250;-58
2022/03/16 01:29:30;;;;;;;;;;;;;;;21.25;45.07;101954.63;5073130;28;4085;-58
2022/03/16 01:31:56;;;;;;;;;;;;;;;21.32;44.70;101951.47;5075633;28;4206;-58
2022/03/16 01:34:23;;;;;;;;;;;;;;;21.32;44.71;101948.59;5073368;28;5382;-58
2022/03/16 01:36:50;;;;;;;;;;;;;;;21.33;44.86;101952.97;5075819;28;4027;-58
2022/03/16 01:39:18;;;;;;;;;;;;;;;21.32;44.86;101953.59;5072613;28;4413;-58
2022/03/16 01:41:47;;;;;;;;;;;;;;;21.33;44.76;101958.00;5075934;28;4205;-58
2022/03/16 01:44:13;;;;;;;;;;;;;;;21.32;44.90;101954.34;5071897;28;4055;-58
2022/03/16 01:46:40;;;;;;;;;;;;;;;21.31;44.85;101957.88;5076189;28;5263;-58
2022/03/16 01:49:06;;;;;;;;;;;;;;;21.32;44.59;101965.88;5070130;28;5424;-58
2022/03/16 01:51:33;;;;;;;;;;;;;;;21.31;44.93;101957.88;5077021;28;4092;-58
2022/03/16 01:54:00;;;;;;;;;;;;;;;21.29;44.58;101970.00;5082817;28;4066;-58
2022/03/16 01:56:26;;;;;;;;;;;;;;;21.29;44.75;101966.38;5076074;28;4172;-58
2022/03/16 01:58:52;;;;;;;;;;;;;;;21.30;44.79;101974.41;5075525;28;4370;-58
2022/03/16 02:01:19;;;;;;;;;;;;;;;21.30;44.80;101980.19;5075047;28;5334;-58
2022/03/16 02:03:45;;;;;;;;;;;;;;;21.30;44.57;101980.19;5073956;28;4007;-58
2022/03/16 02:06:12;;;;;;;;;;;;;;;21.30;44.66;101980.19;5069239;28;4210;-58
2022/03/16 02:08:40;;;;;;;;;;;;;;;21.31;44.59;101978.03;5075167;28;5364;-58
2022/03/16 02:11:07;;;;;;;;;;;;;;;21.31;44.49;101987.44;5075639;28;4160;-58
2022/03/16 02:13:34;;;;;;;;;;;;;;;21.29;44.55;101993.06;5073850;28;4208;-58
2022/03/16 02:16:01;;;;;;;;;;;;;;;21.31;nan;101995.31;5071346;28;5517;-58
2022/03/16 02:18:27;;;;;;;;;;;;;;;21.29;44.68;101990.19;5075503;28;19569;-58
2022/03/16 02:20:54;;;;;;;;;;;;;;;21.30;44.65;101999.56;5073773;28;4455;-58
2022/03/16 02:23:20;;;;;;;;;;;;;;;21.27;44.74;102013.09;5069973;28;5476;-58
2022/03/16 02:25:47;;;;;;;;;;;;;;;21.22;44.59;102017.13;5075316;28;4156;-58
2022/03/16 02:28:14;;;;;;;;;;;;;;;21.18;44.74;102014.00;5073435;28;4384;-59
2022/03/16 02:30:40;;;;;;;;;;;;;;;21.21;44.73;102017.75;5070432;28;4246;-58
2022/03/16 02:33:06;;;;;;;;;;;;;;;21.26;44.68;102020.25;5068352;28;4192;-58
2022/03/16 02:35:33;;;;;;;;;;;;;;;21.29;44.59;102024.75;5076047;28;4418;-58
2022/03/16 02:37:59;;;;;;;;;;;;;;;21.22;44.61;102028.66;5072014;28;4231;-58
2022/03/16 02:40:26;;;;;;;;;;;;;;;21.22;44.76;102036.53;5075607;28;4200;-58
2022/03/16 02:42:52;;;;;;;;;;;;;;;21.29;44.70;102036.28;5072198;28;4206;-58
2022/03/16 02:45:18;;;;;;;;;;;;;;;21.29;44.44;102041.31;5068405;28;4208;-58
2022/03/16 02:47:45;;;;;;;;;;;;;;;21.26;44.53;102043.31;5075401;28;4263;-58
2022/03/16 02:50:12;;;;;;;;;;;;;;;21.25;44.77;102052.56;5073955;28;4228;-58
2022/03/16 02:52:38;;;;;;;;;;;;;;;21.24;44.73;102051.81;5073152;28;6661;-58
2022/03/16 02:55:05;;;;;;;;;;;;;;;21.24;44.52;102057.59;5075594;28;4601;-58
2022/03/16 02:57:31;;;;;;;;;;;;;;;21.26;44.43;102072.13;5070067;28;5296;-58
2022/03/16 02:59:58;;;;;;;;;;;;;;;21.26;44.64;102077.13;5076371;28;4440;-58
2022/03/16 03:02:24;;;;;;;;;;;;;;;21.27;44.54;102088.00;5073407;28;5387;-58
2022/03/16 03:04:51;;;;;;;;;;;;;;;21.26;44.73;102083.63;5073062;28;4234;-58
2022/03/16 03:07:17;;;;;;;;;;;;;;;21.27;44.54;102093.78;5075565;28;4249;-58
2022/03/16 03:09:43;;;;;;;;;;;;;;;21.26;44.47;102092.28;5078936;28;4300;-58
2022/03/16 03:12:10;;;;;;;;;;;;;;;21.26;44.47;102095.16;5079790;27;4048;-58
2022/03/16 03:14:36;;;;;;;;;;;;;;;21.26;44.47;102112.44;5078774;28;5368;-58
2022/03/16 03:17:02;;;;;;;;;;;;;;;21.26;44.34;102112.44;5078507;28;4160;-59
2022/03/16 03:19:29;;;;;;;;;;;;;;;21.28;44.30;102129.88;5080692;28;4082;-58
2022/03/16 03:21:55;;;;;;;;;;;;;;;21.27;44.55;102119.69;5076891;28;4255;-58
2022/03/16 03:24:22;;;;;;;;;;;;;;;21.27;44.55;102130.47;5075003;28;4930;-58
2022/03/16 03:26:48;;;;;;;;;;;;;;;21.28;44.62;102135.63;5079358;28;4040;-57
2022/03/16 03:29:14;;;;;;;;;;;;;;;21.28;44.41;102132.75;5077120;28;4253;-58
2022/03/16 03:31:41;;;;;;;;;;;;;;;21.27;44.42;102137.00;5076298;28;4273;-58
2022/03/16 03:34:07;;;;;;;;;;;;;;;21.28;44.55;102137.72;5074370;28;4197;-58
2022/03/16 03:36:34;;;;;;;;;;;;;;;21.28;44.31;102140.63;5076476;28;4243;-58
2022/03/16 03:39:00;;;;;;;;;;;;;;;21.27;44.49;102147.78;5079559;28;4234;-58
2022/03/16 03:41:26;;;;;;;;;;;;;;;21.27;44.26;102142.00;5078431;28;4016;-58
2022/03/16 03:43:53;;;;;;;;;;;;;;;21.27;44.26;102139.88;5076844;28;4067;-58
2022/03/16 03:46:19;;;;;;;;;;;;;;;21.27;44.43;102142.75;5073599;28;4173;-58
2022/03/16 03:48:45;;;;;;;;;;;;;;;21.29;44.40;102148.66;5075064;28;4172;-58
2022/03/16 03:51:12;;;;;;;;;;;;;;;21.31;44.16;102148.78;5076481;28;4084;-58
2022/03/16 03:53:38;;;;;;;;;;;;;;;21.31;44.37;102148.78;5074394;28;4182;-57
2022/03/16 03:56:05;;;;;;;;;;;;;;;21.30;44.48;102150.16;5075846;28;4223;-58
2022/03/16 03:58:31;;;;;;;;;;;;;;;21.33;44.33;102168.34;5078331;28;5049;-57
2022/03/16 04:00:57;;;;;;;;;;;;;;;21.30;44.29;102170.34;5077086;28;4258;-58
2022/03/16 04:03:24;;;;;;;;;;;;;;;21.29;44.46;102168.81;5077017;28;5324;-57
2022/03/16 04:05:51;;;;;;;;;;;;;;;21.29;44.47;102168.81;5079802;28;4160;-57
2022/03/16 04:08:17;;;;;;;;;;;;;;;21.28;44.42;102166.53;5076737;28;4236;-58
2022/03/16 04:10:43;;;;;;;;;;;;;;;21.28;44.27;102166.53;5079130;28;4249;-58
2022/03/16 04:13:10;;;;;;;;;;;;;;;21.28;44.24;102172.31;5076018;28;4338;-58
2022/03/16 04:15:36;;;;;;;;;;;;;;;21.27;44.18;102171.56;5076748;28;5348;-58
2022/03/16 04:18:03;;;;;;;;;;;;;;;21.26;44.39;102181.59;5074341;28;4238;-58
2022/03/16 04:20:29;;;;;;;;;;;;;;;21.26;44.19;102187.34;5077320;28;5272;-58
2022/03/16 04:22:55;;;;;;;;;;;;;;;21.27;44.35;102188.09;5074386;28;4187;-57
2022/03/16 04:25:22;;;;;;;;;;;;;;;21.25;44.14;102185.84;5076386;28;4214;-58
2022/03/16 04:27:48;;;;;;;;;;;;;;;21.27;44.31;102188.84;5078081;28;4062;-58
2022/03/16 04:30:14;;;;;;;;;;;;;;;21.28;44.25;102190.38;5074170;28;3997;-58
2022/03/16 04:32:41;;;;;;;;;;;;;;;21.27;44.40;102188.84;5077838;28;4047;-58
2022/03/16 04:35:07;;;;;;;;;;;;;;;21.19;44.27;102202.75;5080739;28;3942;-58
2022/03/16 04:37:35;;;;;;;;;;;;;;;21.18;44.56;102203.38;5073651;28;3975;-59
2022/03/16 04:40:02;;;;;;;;;;;;;;;21.17;44.34;102208.38;5073382;28;4172;-64
2022/03/16 04:42:28;;;;;;;;;;;;;;;21.16;44.40;102212.63;5077031;28;4077;-58
2022/03/16 04:44:54;;;;;;;;;;;;;;;21.16;44.47;102206.09;5079780;28;4170;-59
2022/03/16 04:47:21;;;;;;;;;;;;;;;21.15;44.48;102216.88;5078231;28;4847;-58
2022/03/16 04:49:47;;;;;;;;;;;;;;;21.15;44.26;102214.00;5072670;28;3971;-58
2022/03/16 04:52:14;;;;;;;;;;;;;;;21.15;44.42;102216.88;5067646;28;4425;-58
2022/03/16 04:54:40;;;;;;;;;;;;;;;21.22;44.34;102227.44;5067768;28;4040;-58
2022/03/16 04:57:06;;;;;;;;;;;;;;;21.17;44.30;102228.53;5078325;28;4230;-59
2022/03/16 04:59:33;;;;;;;;;;;;;;;21.16;44.33;102229.16;5076825;28;5209;-58
2022/03/16 05:02:00;;;;;;;;;;;;;;;21.14;44.26;102232.66;5076829;28;4188;-58
2022/03/16 05:04:26;;;;;;;;;;;;;;;21.13;44.36;102225.41;5076536;28;5190;-58
2022/03/16 05:06:54;;;;;;;;;;;;;;;21.12;44.27;102230.41;5076647;28;4195;-58
2022/03/16 05:09:20;;;;;;;;;;;;;;;21.12;44.09;102235.41;5079531;28;5217;-57
2022/03/16 05:11:46;;;;;;;;;;;;;;;21.12;44.28;102238.31;5078605;28;4164;-57
2022/03/16 05:14:13;;;;;;;;;;;;;;;21.10;44.16;102235.28;5077073;28;5301;-58
2022/03/16 05:16:39;;;;;;;;;;;;;;;21.11;44.10;102236.78;5076744;28;5548;-58
2022/03/16 05:19:06;;;;;;;;;;;;;;;21.19;44.02;102234.44;5078403;28;5238;-58
2022/03/16 05:21:32;;;;;;;;;;;;;;;21.21;43.85;102237.47;5073713;28;4158;-58
2022/03/16 05:23:58;;;;;;;;;;;;;;;21.22;44.01;102243.97;5075512;28;4341;-58
2022/03/16 05:26:25;;;;;;;;;;;;;;;21.24;43.90;102244.84;5075546;27;4365;-58
2022/03/16 05:28:52;;;;;;;;;;;;;;;21.25;44.01;102245.59;5076606;28;4188;-58
2022/03/16 05:31:19;;;;;;;;;;;;;;;21.27;43.82;102246.47;5073764;28;4208;-58
2022/03/16 05:33:46;;;;;;;;;;;;;;;21.27;43.65;102232.06;5077556;28;4306;-58
2022/03/16 05:36:13;;;;;;;;;;;;;;;21.27;43.72;102234.94;5067128;28;4239;-58
2022/03/16 05:38:39;;;;;;;;;;;;;;;21.26;43.97;102239.22;5071624;28;4255;-57
2022/03/16 05:41:05;;;;;;;;;;;;;;;21.32;43.49;102236.72;5071187;28;6421;-58
2022/03/16 05:43:32;;;;;;;;;;;;;;;21.27;43.67;102232.06;5066327;28;4224;-58
2022/03/16 05:45:58;;;;;;;;;;;;;;;21.27;43.58;102240.72;5070123;28;4245;-58
2022/03/16 05:48:25;;;;;;;;;;;;;;;21.29;43.79;102242.97;5067647;28;4263;-63
2022/03/16 05:50:51;;;;;;;;;;;;;;;21.12;42.59;102246.94;5070790;28;4241;-66
2022/03/16 05:53:17;;;;;;;;;;;;;;;21.21;43.37;102248.97;5069101;28;4293;-64
2022/03/16 05:55:44;;;;;;;;;;;;;;;21.30;43.49;102248.13;5072167;28;4295;-69
2022/03/16 06:01:03;;;;;;;;;;;;;;;21.28;44.01;102267.38;5070444;28;4185;-67
2022/03/16 06:03:30;;;;;;;;;;;;;;;21.22;43.66;102262.00;5075652;28;4218;-68
2022/03/16 06:05:57;;;;;;;;;;;;;;;21.22;43.87;102269.91;5076935;28;4037;-67
2022/03/16 06:08:23;;;;;;;;;;;;;;;21.21;43.79;102262.59;5074506;28;4820;-67
2022/03/16 06:10:49;;;;;;;;;;;;;;;21.23;44.40;102265.63;5074251;28;4211;-67
2022/03/16 06:13:17;;;;;;;;;;;;;;;21.23;44.05;102260.59;5074931;28;4373;-68
2022/03/16 06:15:43;;;;;;;;;;;;;;;21.26;44.62;102267.28;5074060;28;4258;-79
2022/03/16 06:18:10;;;;;;;;;;;;;;;21.24;44.16;102259.25;5076247;28;4098;-68
2022/03/16 06:20:36;;;;;;;;;;;;;;;21.20;43.96;102264.75;5075416;28;4241;-68
2022/03/16 06:23:04;;;;;;;;;;;;;;;21.10;43.30;102272.72;5075275;28;4016;-68
2022/03/16 06:25:35;;;;;;;;;;;;;;;20.84;42.92;102278.22;5077858;28;5308;-68
2022/03/16 06:28:02;;;;;;;;;;;;;;;20.70;42.33;102277.28;5076538;28;5318;-68
2022/03/16 06:30:28;;;;;;;;;;;;;;;20.65;41.87;102279.13;5078220;28;4523;-71
2022/03/16 06:32:54;;;;;;;;;;;;;;;20.84;40.75;102281.09;5077937;28;4033;-67
2022/03/16 06:35:21;;;;;;;;;;;;;;;21.00;41.59;102266.28;5077409;28;4151;-66
2022/03/16 06:37:48;;;;;;;;;;;;;;;21.11;41.38;102277.09;5070869;28;4127;-67
2022/03/16 06:40:14;;;;;;;;;;;;;;;21.17;41.07;102273.88;5074833;28;4189;-67
2022/03/16 06:42:44;;;;;;;;;;;;;;;21.19;41.59;102276.88;5077975;28;4103;-67
2022/03/16 06:45:10;;;;;;;;;;;;;;;21.21;41.60;102272.03;5078282;28;4182;-68
2022/03/16 06:47:38;;;;;;;;;;;;;;;21.22;41.65;102273.53;5082992;28;4214;-66
2022/03/16 06:50:05;;;;;;;;;;;;;;;21.23;41.53;102277.91;5075295;28;4376;-68
2022/03/16 06:52:32;;;;;;;;;;;;;;;21.26;41.61;102282.44;5074023;27;5162;-68
2022/03/16 06:54:58;;;;;;;;;;;;;;;21.26;41.66;102285.31;5064820;28;5752;-69
2022/03/16 06:57:24;;;;;;;;;;;;;;;21.25;41.65;102283.78;5062266;28;4139;-68
2022/03/16 07:00:00;;;;;;;;;;;;;;;21.26;41.74;102282.44;5066194;28;4272;-69
2022/03/16 07:02:27;;;;;;;;;;;;;;;21.27;41.60;102280.31;5065300;28;4310;-69
2022/03/16 07:04:53;;;;;;;;;;;;;;;21.26;41.64;102279.56;5066478;28;4034;-68
2022/03/16 07:07:20;;;;;;;;;;;;;;;21.24;41.59;102276.53;5062719;28;4301;-68
2022/03/16 07:09:46;;;;;;;;;;;;;;;21.26;41.75;102279.56;5066583;28;4043;-69
2022/03/16 07:12:13;;;;;;;;;;;;;;;21.27;41.86;102277.41;5068439;28;5261;-68
2022/03/16 07:14:39;;;;;;;;;;;;;;;21.27;41.66;102263.75;5067241;28;4139;-68
2022/03/16 07:17:05;;;;;;;;;;;;;;;21.28;41.96;102278.91;5063844;28;4130;-68
2022/03/16 07:19:32;;;;;;;;;;;;;;;21.28;41.84;102276.81;5067022;28;4241;-68
2022/03/16 07:21:59;;;;;;;;;;;;;;;21.30;41.71;102285.59;5075684;28;4584;-69
2022/03/16 07:24:25;;;;;;;;;;;;;;;21.30;41.78;102279.81;5077020;28;4066;-69
2022/03/16 07:26:55;;;;;;;;;;;;;;;21.31;41.74;102283.44;5079610;28;4228;-71
2022/03/16 07:29:22;;;;;;;;;;;;;;;21.27;41.93;102283.94;5075886;28;4057;-70
2022/03/16 07:31:48;;;;;;;;;;;;;;;21.27;41.92;102289.69;5078171;28;4166;-67
2022/03/16 07:34:15;;;;;;;;;;;;;;;21.27;41.90;102280.31;5080067;28;4065;-69
2022/03/16 07:36:41;;;;;;;;;;;;;;;21.29;41.80;102284.06;5077080;28;4133;-71
2022/03/16 07:39:08;;;;;;;;;;;;;;;21.29;41.92;102284.06;5078151;28;4247;-70
2022/03/16 07:41:34;;;;;;;;;;;;;;;21.31;41.86;102287.09;5078803;28;4236;-70
2022/03/16 07:44:01;;;;;;;;;;;;;;;21.25;41.87;102289.56;5079921;28;4229;-71
2022/03/16 07:46:27;;;;;;;;;;;;;;;21.24;41.87;102290.94;5077189;28;4303;-70
2022/03/16 07:48:54;;;;;;;;;;;;;;;21.25;41.98;102300.34;5080335;28;4023;-69
2022/03/16 07:51:20;;;;;;;;;;;;;;;21.25;42.11;102306.84;5073823;28;4146;-69
2022/03/16 07:53:46;;;;;;;;;;;;;;;21.25;42.04;102312.59;5087314;28;4098;-69
2022/03/16 07:56:13;;;;;;;;;;;;;;;21.31;41.93;102315.91;5068133;28;4094;-71
2022/03/16 07:58:41;;;;;;;;;;;;;;;21.36;41.79;102316.16;5076621;28;5255;-70
2022/03/16 08:01:07;;;;;;;;;;;;;;;21.34;41.93;102314.66;5076886;28;4194;-70
2022/03/16 08:03:34;;;;;;;;;;;;;;;21.34;41.90;102320.41;5078838;28;4101;-69
2022/03/16 08:06:00;;;;;;;;;;;;;;;21.37;41.93;102323.44;5080601;28;4074;-69
2022/03/16 08:08:28;;;;;;;;;;;;;;;21.36;42.01;102328.44;5077086;28;4209;-69
2022/03/16 08:10:55;;;;;;;;;;;;;;;21.38;41.91;102331.47;5078110;28;4301;-69
2022/03/16 08:13:21;;;;;;;;;;;;;;;21.40;41.93;102339.50;5078104;28;4262;-68
2022/03/16 08:15:48;;;;;;;;;;;;;;;21.30;41.96;102343.22;5078276;28;4177;-67
2022/03/16 08:18:14;;;;;;;;;;;;;;;21.29;42.11;102341.69;5076939;28;5213;-67
2022/03/16 08:20:41;;;;;;;;;;;;;;;21.28;41.91;102340.19;5079054;28;4137;-67
2022/03/16 08:23:07;;;;;;;;;;;;;;;21.32;41.97;102340.44;5079802;28;4270;-67
2022/03/16 08:25:51;;;;;;;;;;;;;;;21.32;41.90;102342.56;5079552;28;4151;-67
2022/03/16 08:28:17;;;;;;;;;;;;;;;21.37;41.83;102352.25;5079001;28;4560;-67
2022/03/16 08:30:43;;;;;;;;;;;;;;;21.34;41.88;102354.97;5079184;28;4033;-67
2022/03/16 08:33:10;;;;;;;;;;;;;;;21.33;42.03;102352.75;5074844;28;4170;-67
2022/03/16 08:35:36;;;;;;;;;;;;;;;21.34;42.04;102349.22;5076924;28;4254;-67
2022/03/16 08:38:03;;;;;;;;;;;;;;;21.36;41.98;102345.72;5079048;28;5446;-67
2022/03/16 08:40:29;;;;;;;;;;;;;;;21.37;41.95;102353.00;5078587;28;4339;-67
2022/03/16 08:42:55;;;;;;;;;;;;;;;21.37;41.86;102349.38;5080631;28;4193;-67
2022/03/16 08:45:22;;;;;;;;;;;;;;;21.38;41.87;102359.53;5078437;28;4287;-67
2022/03/16 08:47:48;;;;;;;;;;;;;;;21.38;41.93;102353.78;5079107;28;4009;-67
2022/03/16 08:50:14;;;;;;;;;;;;;;;21.36;41.95;102359.38;5078015;28;4164;-67
2022/03/16 08:52:41;;;;;;;;;;;;;;;21.36;42.00;102357.25;5079216;28;4521;-67
2022/03/16 08:55:07;;;;;;;;;;;;;;;21.38;41.99;102353.78;5077178;28;4229;-67
2022/03/16 08:57:36;;;;;;;;;;;;;;;21.36;42.00;102356.50;5078560;28;4287;-67
2022/03/16 09:00:02;;;;;;;;;;;;;;;21.39;41.89;102373.31;5078904;28;4228;-67
2022/03/16 09:02:29;;;;;;;;;;;;;;;21.40;41.91;102374.06;5078726;28;4151;-67
2022/03/16 09:04:55;;;;;;;;;;;;;;;21.41;42.00;102361.19;5077107;28;4246;-67
2022/03/16 09:07:22;;;;;;;;;;;;;;;21.32;42.09;102368.50;5078283;28;4152;-67
2022/03/16 09:09:48;;;;;;;;;;;;;;;21.33;41.96;102364.28;5075175;28;4410;-68
2022/03/16 09:12:15;;;;;;;;;;;;;;;21.29;42.01;102364.00;5077287;28;4232;-68
2022/03/16 09:14:43;;;;;;;;;;;;;;;21.28;42.19;102374.78;5079606;28;4054;-67
2022/03/16 09:17:10;;;;;;;;;;;;;;;21.36;41.94;102373.81;5077596;28;5646;-68
2022/03/16 09:19:37;;;;;;;;;;;;;;;21.39;41.83;102378.31;5078659;28;5051;-67
2022/03/16 09:22:04;;;;;;;;;;;;;;;21.40;41.85;102368.31;5078869;28;4141;-67
2022/03/16 09:24:30;;;;;;;;;;;;;;;21.39;41.92;102379.06;5077870;28;4183;-67
2022/03/16 09:26:59;;;;;;;;;;;;;;;21.39;41.90;102375.44;5076245;28;4146;-67
2022/03/16 09:29:26;;;;;;;;;;;;;;;21.40;41.84;102385.59;5077312;28;4245;-67
2022/03/16 09:31:52;;;;;;;;;;;;;;;21.41;41.96;102384.25;5078016;28;4227;-67
2022/03/16 09:34:19;;;;;;;;;;;;;;;21.41;41.83;102381.38;5077003;28;4198;-67
2022/03/16 09:36:46;;;;;;;;;;;;;;;21.41;41.82;102387.13;5077610;28;4003;-67
2022/03/16 09:39:12;;;;;;;;;;;;;;;21.41;41.80;102390.00;5078346;28;4302;-67
2022/03/16 09:41:38;;;;;;;;;;;;;;;21.40;41.84;102392.13;5077730;28;5387;-67
2022/03/16 09:44:06;;;;;;;;;;;;;;;21.39;42.04;102390.59;5078103;28;5374;-67
2022/03/16 09:46:33;;;;;;;;;;;;;;;21.41;42.05;102395.78;5078070;28;5164;-67
2022/03/16 09:48:59;;;;;;;;;;;;;;;21.41;41.94;102393.63;5078509;28;5397;-67
2022/03/16 09:51:35;;;;;;;;;;;;;;;21.41;42.14;102402.28;5077096;28;4094;-67
2022/03/16 09:54:04;;;;;;;;;;;;;;;21.42;41.88;102405.94;5076504;28;4077;-66
2022/03/16 09:56:32;;;;;;;;;;;;;;;21.43;42.00;102401.69;5078178;28;3967;-67
2022/03/16 09:58:58;;;;;;;;;;;;;;;21.42;42.02;102400.19;5078040;28;5314;-66
2022/03/16 10:01:25;;;;;;;;;;;;;;;21.42;42.05;102408.81;5076894;28;4183;-67
2022/03/16 10:03:52;;;;;;;;;;;;;;;21.42;41.82;102412.47;5076870;28;4240;-67
2022/03/16 10:06:22;;;;;;;;;;;;;;;21.41;41.98;102410.94;5077030;28;4328;-66
2022/03/16 10:13:13;;;;;;;;;;;;;;;21.42;41.93;102417.47;5077196;28;4075;-67
2022/03/16 10:14:19;;;;;;;;;;;;;;;21.42;42.06;102412.47;5076453;28;4161;-67
2022/03/16 10:19:50;;;;;;;;;;;;;;;21.42;41.87;102411.72;5074951;28;4070;-67
2022/03/16 10:22:21;;;;;;;;;;;;;;;21.40;41.92;102402.91;5077072;28;4204;-67
2022/03/16 10:24:47;;;;;;;;;;;;;;;21.39;42.00;102419.41;5077813;28;4216;-66
2022/03/16 10:27:16;;;;;;;;;;;;;;;21.40;42.06;102417.31;5075657;28;6264;-67
2022/03/16 10:29:44;;;;;;;;;;;;;;;21.40;41.94;102420.19;5077641;28;5442;-67
2022/03/16 10:32:11;;;;;;;;;;;;;;;21.40;41.98;102420.97;5076574;28;4187;-67
2022/03/16 10:34:47;;;;;;;;;;;;;;;21.41;41.94;102421.72;5077015;28;4108;-67
2022/03/16 10:37:17;;;;;;;;;;;;;;;21.43;41.96;102424.72;5077568;28;4174;-67
2022/03/16 10:39:43;;;;;;;;;;;;;;;21.42;42.08;102423.22;5077656;28;4217;-67
2022/03/16 10:47:56;;;;;;;;;;;;;;;21.36;41.95;102417.03;5077551;28;4194;-67
2022/03/16 10:50:22;;;;;;;;;;;;;;;21.32;42.12;102415.38;5077504;28;4223;-67
2022/03/16 10:52:50;;;;;;;;;;;;;;;21.33;41.97;102416.13;5074992;28;4234;-67
2022/03/16 10:55:17;;;;;;;;;;;;;;;21.32;42.09;102417.50;5076571;28;4516;-66
2022/03/16 10:57:43;;;;;;;;;;;;;;;21.42;42.11;102417.47;5077693;28;4165;-67
2022/03/16 11:00:10;;;;;;;;;;;;;;;21.37;42.01;102422.16;5076570;28;5259;-68
2022/03/16 11:02:37;;;;;;;;;;;;;;;21.41;42.07;102413.81;5077323;28;4152;-67
2022/03/16 11:05:04;;;;;;;;;;;;;;;21.43;41.85;102419.72;5076213;28;4094;-67
2022/03/16 11:07:30;;;;;;;;;;;;;;;21.40;41.85;102418.09;5076421;28;4550;-67
2022/03/16 11:09:57;;;;;;;;;;;;;;;21.42;41.89;102417.47;5077075;28;4161;-67
2022/03/16 11:15:09;;;;;;;;;;;;;;;21.28;42.11;102411.44;5076216;28;3993;-67
2022/03/16 11:17:36;;;;;;;;;;;;;;;21.26;42.13;102414.97;5077289;28;4027;-67
2022/03/16 11:20:03;;;;;;;;;;;;;;;21.27;42.16;102413.59;5077240;28;5476;-67
2022/03/16 11:24:15;;;;;;;;;;;;;;;21.26;42.22;102411.34;5076144;28;4040;-67
2022/03/16 11:25:28;;;;;;;;;;;;;;;21.26;42.35;102411.34;5072296;28;4159;-67
2022/03/16 11:27:56;;;;;;;;;;;;;;;21.25;42.34;102409.81;5076149;28;4337;-68
2022/03/16 11:30:29;;;;;;;;;;;;;;;21.25;42.27;102409.81;5077224;28;5228;-67
2022/03/16 11:32:59;;;;;;;;;;;;;;;21.24;42.17;102403.31;5076733;28;4122;-67
2022/03/16 11:35:33;;;;;;;;;;;;;;;21.25;42.29;102407.69;5076997;28;4144;-67
2022/03/16 11:38:00;;;;;;;;;;;;;;;21.24;42.32;102399.69;5080068;28;4059;-67
2022/03/16 11:40:27;;;;;;;;;;;;;;;21.26;42.43;102409.22;5079855;28;4195;-67
2022/03/16 11:43:06;;;;;;;;;;;;;;;21.27;42.24;102407.06;5077944;28;4437;-67
2022/03/16 11:45:35;;;;;;;;;;;;;;;21.33;42.22;102398.84;5078333;28;4180;-67
2022/03/16 11:48:21;;;;;;;;;;;;;;;21.34;41.98;102401.09;5081851;28;5244;-67
2022/03/16 11:51:05;;;;;;;;;;;;;;;21.36;42.00;102397.59;5079266;28;5236;-68
2022/03/16 11:53:51;;;;;;;;;;;;;;;21.36;42.19;102399.75;5079730;28;4274;-67
2022/03/16 11:56:20;;;;;;;;;;;;;;;21.34;42.03;102395.34;5080124;28;4349;-67
2022/03/16 11:58:47;;;;;;;;;;;;;;;21.34;41.99;102388.81;5079052;28;4170;-67
2022/03/16 12:01:42;;;;;;;;;;;;;;;21.32;42.11;102377.91;5080493;28;4274;-67
2022/03/16 12:04:12;;;;;;;;;;;;;;;21.33;42.23;102382.31;5077918;28;4356;-67
2022/03/16 12:06:50;;;;;;;;;;;;;;;21.34;42.03;102383.81;5080131;28;4065;-67
2022/03/16 12:09:18;;;;;;;;;;;;;;;21.33;42.20;102388.06;5079136;28;4322;-67
2022/03/16 12:14:56;;;;;;;;;;;;;;;21.32;42.29;102375.03;5056949;28;4136;-67
2022/03/16 12:17:22;;;;;;;;;;;;;;;21.33;42.07;102373.66;5078421;28;4334;-67
2022/03/16 12:20:11;;;;;;;;;;;;;;;21.32;42.04;102369.25;5078613;28;4045;-67
2022/03/16 12:22:38;;;;;;;;;;;;;;;21.31;42.02;102367.75;5078799;28;4083;-67
2022/03/16 12:25:22;;;;;;;;;;;;;;;21.31;42.13;102367.75;5078745;28;4152;-68
2022/03/16 12:30:39;;;;;;;;;;;;;;;21.32;42.20;102356.97;5079045;28;4103;-67
2022/03/16 12:33:11;;;;;;;;;;;;;;;21.31;42.19;102350.47;5078885;28;4190;-67
2022/03/16 12:35:38;;;;;;;;;;;;;;;21.30;42.19;102357.63;5079087;28;3983;-67
2022/03/16 12:38:10;;;;;;;;;;;;;;;21.31;42.31;102353.34;5079586;28;4218;-67
2022/03/16 12:42:31;;;;;;;;;;;;;;;21.31;42.28;102358.38;5078887;28;4148;-67
2022/03/16 12:43:25;;;;;;;;;;;;;;;21.31;42.34;102356.22;5078595;28;4168;-67
2022/03/16 12:45:52;;;;;;;;;;;;;;;21.31;42.46;102355.50;5078490;28;4219;-67
2022/03/16 12:48:19;;;;;;;;;;;;;;;21.30;42.29;102348.19;5077520;28;4164;-68
2022/03/16 12:50:47;;;;;;;;;;;;;;;21.24;42.42;102351.44;5107245;27;4209;-67
2022/03/16 12:53:29;;;;;;;;;;;;;;;21.22;42.40;102354.19;5078650;28;4188;-67
2022/03/16 12:55:55;;;;;;;;;;;;;;;21.20;42.50;102345.41;5078831;28;4034;-67
2022/03/16 12:58:27;;;;;;;;;;;;;;;21.17;42.44;102346.66;5078489;28;4147;-67
2022/03/16 13:00:57;;;;;;;;;;;;;;;21.17;42.50;102352.41;5078227;28;4500;-67
2022/03/16 13:03:24;;;;;;;;;;;;;;;21.17;42.71;102349.53;5079096;28;5197;-67
2022/03/16 13:05:52;;;;;;;;;;;;;;;21.17;42.57;102354.56;5079455;28;4037;-67
2022/03/16 13:08:19;;;;;;;;;;;;;;;21.16;42.76;102336.50;5076986;28;4177;-67
2022/03/16 13:13:31;;;;;;;;;;;;;;;21.15;42.57;102332.13;5074099;28;4122;-66
2022/03/16 13:16:01;;;;;;;;;;;;;;;21.16;42.55;102329.97;5075273;28;4026;-66